Time;durP1;ratioP1;P1;durP2;ratioP2;P2;SDS_P1;SDS_P2;PMS_P1;PMS_P2;Temp;Humidity;BMP_temperature;BMP_pressure;BME280_temperature;BME280_humidity;BME280_pressure;Samples;Min_cycle;Max_cycle;Signal;HPM_P1;HPM_P2
2020/12/01 00:02:35;;;;;;;29.35;21.95;;;;;;;7.53;68.48;101541.61;1744720;82;21335;-59
2020/12/01 00:05:41;;;;;;;29.63;21.97;;;;;;;7.54;68.42;101546.09;1744683;82;21243;-59
2020/12/01 00:08:48;;;;;;;28.38;21.25;;;;;;;7.49;68.28;101543.37;1715154;83;21372;-59
2020/12/01 00:11:54;;;;;;;30.37;22.10;;;;;;;7.45;68.33;101543.27;1713353;82;21252;-59
2020/12/01 00:15:00;;;;;;;31.42;22.48;;;;;;;7.43;68.13;101555.66;1716013;83;21351;-59
2020/12/01 00:18:07;;;;;;;31.68;21.65;;;;;;;7.44;68.15;101551.05;1714907;83;21312;-59
2020/12/01 00:21:17;;;;;;;31.45;22.27;;;;;;;7.46;68.14;101555.89;1717000;82;21346;-59
2020/12/01 00:24:23;;;;;;;38.73;24.25;;;;;;;7.50;68.12;101560.95;1710220;84;21319;-60
2020/12/01 00:27:30;;;;;;;29.23;21.65;;;;;;;7.52;68.10;101554.88;1710317;84;21205;-59
2020/12/01 00:30:37;;;;;;;29.42;22.60;;;;;;;7.54;68.12;101556.98;1710228;83;21374;-59
2020/12/01 00:33:44;;;;;;;41.28;28.27;;;;;;;7.54;67.95;101547.45;1713558;82;21185;-59
2020/12/01 00:36:49;;;;;;;45.08;28.52;;;;;;;7.48;67.92;101550.66;1710095;84;21362;-58
2020/12/01 00:39:53;;;;;;;48.00;31.10;;;;;;;7.40;67.71;101536.81;1710693;84;21415;-58
2020/12/01 00:42:59;;;;;;;38.58;27.27;;;;;;;7.26;67.95;101546.63;1711134;83;21197;-60
2020/12/01 00:46:05;;;;;;;29.85;22.00;;;;;;;7.25;68.31;101539.95;1716631;83;21208;-59
2020/12/01 00:49:11;;;;;;;30.60;22.93;;;;;;;7.26;68.29;101542.54;1710185;83;21324;-59
2020/12/01 00:52:19;;;;;;;34.40;24.02;;;;;;;7.32;68.11;101537.09;1711192;84;21351;-60
2020/12/01 00:55:25;;;;;;;34.03;23.60;;;;;;;7.36;68.10;101543.52;1710399;83;21321;-59
2020/12/01 00:58:31;;;;;;;32.40;22.15;;;;;;;7.35;67.82;101540.44;1711051;83;21265;-58
2020/12/01 01:01:40;;;;;;;32.75;23.42;;;;;;;7.29;67.84;101543.64;1714002;83;21333;-58
2020/12/01 01:04:45;;;;;;;35.23;24.32;;;;;;;7.26;67.95;101545.78;1710578;84;21216;-59
2020/12/01 01:07:51;;;;;;;32.93;22.77;;;;;;;7.25;68.03;101548.12;1733034;82;21327;-59
2020/12/01 01:10:56;;;;;;;30.45;21.87;;;;;;;7.24;68.15;101551.36;1739759;82;21348;-58
2020/12/01 01:14:03;;;;;;;33.40;22.60;;;;;;;7.27;68.22;101549.74;1739747;82;21339;-59
2020/12/01 01:17:10;;;;;;;37.17;24.27;;;;;;;7.26;68.10;101548.51;1739744;82;21355;-59
2020/12/01 01:20:17;;;;;;;34.05;24.45;;;;;;;7.28;68.19;101549.22;1739420;82;21568;-59
2020/12/01 01:23:22;;;;;;;35.73;24.07;;;;;;;7.29;68.24;101550.45;1747098;82;21190;-59
2020/12/01 01:26:28;;;;;;;42.27;26.93;;;;;;;7.28;68.22;101552.82;1736425;82;21347;-58
2020/12/01 01:29:33;;;;;;;37.63;26.02;;;;;;;7.29;68.22;101550.98;1736569;82;21372;-58
2020/12/01 01:32:40;;;;;;;35.25;25.92;;;;;;;7.22;68.37;101559.27;1736482;82;21209;-58
2020/12/01 01:35:45;;;;;;;40.88;28.02;;;;;;;7.23;68.62;101558.30;1736527;82;21469;-60
2020/12/01 01:38:50;;;;;;;44.55;29.30;;;;;;;7.25;68.68;101564.45;1736424;82;21366;-58
2020/12/01 01:41:56;;;;;;;41.15;25.88;;;;;;;7.25;68.84;101561.73;1736340;82;21340;-64
2020/12/01 01:45:02;;;;;;;38.20;26.17;;;;;;;7.25;68.87;101572.14;1736618;82;21383;-59
2020/12/01 01:48:09;;;;;;;36.23;24.85;;;;;;;7.26;68.94;101567.57;1736950;82;21343;-58
2020/12/01 01:51:24;;;;;;;36.93;25.68;;;;;;;7.25;69.08;101565.34;1737169;82;21209;-58
2020/12/01 01:54:31;;;;;;;39.42;25.68;;;;;;;7.28;69.13;101567.80;1727821;82;21343;-59
2020/12/01 01:57:38;;;;;;;35.48;24.52;;;;;;;7.29;69.20;101565.95;1736554;82;21336;-58
2020/12/01 02:00:58;;;;;;;39.15;25.43;;;;;;;7.27;69.17;101568.80;1736753;82;21431;-58
2020/12/01 02:04:07;;;;;;;35.08;24.35;;;;;;;7.26;69.21;101573.02;1736498;82;21332;-59
2020/12/01 02:07:14;;;;;;;34.65;24.30;;;;;;;7.24;69.29;101582.67;1735988;82;21355;-59
2020/12/01 02:10:19;;;;;;;35.60;24.30;;;;;;;7.24;69.29;101584.04;1673043;86;21242;-59
2020/12/01 02:13:28;;;;;;;37.80;25.27;;;;;;;7.23;69.32;101576.84;1674515;82;21245;-58
2020/12/01 02:16:34;;;;;;;36.45;24.12;;;;;;;7.21;69.36;101576.13;1735189;82;21439;-59
2020/12/01 02:19:39;;;;;;;33.50;23.90;;;;;;;7.23;69.33;101582.80;1702147;84;21672;-59
2020/12/01 02:22:54;;;;;;;35.08;23.55;;;;;;;7.20;69.40;101581.18;1674468;85;21344;-59
2020/12/01 02:26:07;;;;;;;32.42;23.32;;;;;;;7.21;69.51;101584.30;1702419;84;21233;-59
2020/12/01 02:29:19;;;;;;;32.65;22.77;;;;;;;7.22;69.55;101580.56;1674027;85;21273;-59
2020/12/01 02:32:26;;;;;;;31.97;21.57;;;;;;;7.19;69.41;101586.27;1702345;84;21201;-59
2020/12/01 02:35:33;;;;;;;38.28;25.25;;;;;;;7.15;69.40;101589.37;1674069;85;21356;-60
2020/12/01 02:38:40;;;;;;;65.52;34.23;;;;;;;7.00;69.47;101587.39;1702261;84;21399;-59
2020/12/01 02:41:46;;;;;;;70.62;35.30;;;;;;;6.88;69.71;101584.27;1674241;85;21881;-59
2020/12/01 02:44:51;;;;;;;48.83;27.15;;;;;;;6.83;70.13;101588.37;1702224;84;21340;-59
2020/12/01 02:48:05;;;;;;;37.58;24.15;;;;;;;6.86;70.34;101590.35;1722953;83;21232;-58
2020/12/01 02:51:10;;;;;;;35.05;24.32;;;;;;;6.94;70.42;101598.77;1773160;80;21343;-58
2020/12/01 02:54:17;;;;;;;34.85;23.32;;;;;;;6.97;70.48;101598.52;1762327;81;21208;-58
2020/12/01 02:57:23;;;;;;;31.50;22.05;;;;;;;7.02;70.42;101597.67;1762049;81;21200;-59
2020/12/01 03:00:30;;;;;;;46.42;27.02;;;;;;;7.04;70.23;101601.62;1762355;80;21374;-60
2020/12/01 03:03:35;;;;;;;40.20;23.92;;;;;;;7.05;70.27;101601.50;1762348;81;21334;-59
2020/12/01 03:06:41;;;;;;;35.30;24.10;;;;;;;7.05;70.27;101606.94;1758005;80;21670;-59
2020/12/01 03:09:47;;;;;;;37.05;23.10;;;;;;;7.08;70.26;101605.81;1737784;82;21366;-58
2020/12/01 03:12:54;;;;;;;32.23;22.55;;;;;;;7.09;70.16;101600.73;1737202;82;21339;-57
2020/12/01 03:16:06;;;;;;;36.50;21.77;;;;;;;7.09;70.18;101607.05;1737778;82;21429;-59
2020/12/01 03:19:07;;;;;;;32.60;21.68;;;;;;;7.11;70.17;101606.92;1737252;82;21315;-59
2020/12/01 03:22:13;;;;;;;31.65;20.40;;;;;;;7.11;70.12;101604.20;1738873;82;21382;-58
2020/12/01 03:25:20;;;;;;;27.40;19.92;;;;;;;7.03;70.07;101612.13;1736828;82;21264;-59
2020/12/01 03:28:25;;;;;;;23.55;18.37;;;;;;;7.00;70.26;101610.53;1737716;82;21220;-59
2020/12/01 03:31:30;;;;;;;28.47;18.55;;;;;;;6.99;70.31;101601.97;1736962;82;21386;-59
2020/12/01 03:34:37;;;;;;;27.80;19.42;;;;;;;7.00;70.35;101609.65;1737468;82;21220;-60
2020/12/01 03:37:42;;;;;;;29.52;19.45;;;;;;;7.01;70.38;101605.92;1737005;82;21843;-59
2020/12/01 03:40:48;;;;;;;24.63;18.02;;;;;;;7.04;70.36;101613.88;1736929;82;21193;-59
2020/12/01 03:43:54;;;;;;;28.55;19.20;;;;;;;6.96;70.27;101606.30;1737519;82;21304;-59
2020/12/01 03:46:59;;;;;;;23.10;17.65;;;;;;;6.92;70.44;101610.76;1734324;82;21322;-59
2020/12/01 03:50:05;;;;;;;23.92;16.52;;;;;;;6.90;70.51;101613.60;1747190;82;21361;-60
2020/12/01 03:53:11;;;;;;;23.27;16.60;;;;;;;6.89;70.50;101607.80;1746312;82;21327;-59
2020/12/01 03:56:18;;;;;;;19.98;15.88;;;;;;;6.89;70.57;101605.08;1746869;82;21879;-59
2020/12/01 03:59:28;;;;;;;24.80;16.30;;;;;;;6.91;70.54;101615.84;1747038;82;21390;-55
2020/12/01 04:02:34;;;;;;;21.40;14.53;;;;;;;6.91;70.61;101609.87;1747127;82;21165;-55
2020/12/01 04:05:40;;;;;;;22.35;15.32;;;;;;;6.93;70.55;101606.55;1747047;82;21358;-56
2020/12/01 04:08:45;;;;;;;22.02;16.10;;;;;;;6.92;70.54;101604.83;1746923;82;21335;-57
2020/12/01 04:11:50;;;;;;;28.50;17.82;;;;;;;6.92;70.54;101603.47;1752492;81;21876;-56
2020/12/01 04:14:56;;;;;;;21.50;15.48;;;;;;;6.94;70.56;101599.26;1747047;82;21338;-56
2020/12/01 04:18:02;;;;;;;22.75;16.60;;;;;;;6.93;70.57;101603.83;1746125;82;21342;-56
2020/12/01 04:21:09;;;;;;;24.70;16.02;;;;;;;6.92;70.57;101600.75;1747103;82;21358;-56
2020/12/01 04:24:14;;;;;;;21.02;14.10;;;;;;;6.89;70.61;101598.27;1747187;82;21331;-56
2020/12/01 04:27:19;;;;;;;19.70;13.78;;;;;;;6.90;70.70;101597.27;1746936;82;21168;-56
2020/12/01 04:30:25;;;;;;;19.37;14.30;;;;;;;6.91;70.59;101606.31;1746966;82;21334;-56
2020/12/01 04:33:31;;;;;;;20.15;14.47;;;;;;;6.89;70.65;101600.12;1747066;82;21310;-57
2020/12/01 04:36:37;;;;;;;18.98;12.82;;;;;;;6.93;70.73;101590.73;1747084;82;21387;-57
2020/12/01 04:39:43;;;;;;;18.70;13.38;;;;;;;6.96;70.72;101604.94;1747246;81;21322;-57
2020/12/01 04:42:54;;;;;;;16.02;12.37;;;;;;;6.98;70.61;101604.81;1747011;82;21311;-57
2020/12/01 04:46:00;;;;;;;13.50;10.88;;;;;;;6.97;70.54;101607.17;1747087;82;21365;-56
2020/12/01 04:49:15;;;;;;;14.38;10.43;;;;;;;6.97;70.62;101613.50;1741400;82;21509;-58
2020/12/01 04:52:46;;;;;;;12.90;9.98;;;;;;;6.98;70.54;101598.88;1735481;82;21324;-56
2020/12/01 04:56:02;;;;;;;11.88;9.45;;;;;;;6.99;70.53;101601.12;1710358;84;21274;-56
2020/12/01 04:59:29;;;;;;;11.55;8.90;;;;;;;6.99;70.31;101610.66;1707461;84;21235;-56
2020/12/01 05:03:18;;;;;;;11.25;8.78;;;;;;;6.91;70.55;101607.67;1710955;84;21199;-56
2020/12/01 05:07:15;;;;;;;13.90;8.63;;;;;;;6.94;70.63;101621.03;1708998;84;21214;-57
2020/12/01 05:10:20;;;;;;;;;;;;;;;6.94;70.55;101605.58;1708656;84;21216;-56
2020/12/01 05:13:32;;;;;;;13.28;9.40;;;;;;;6.94;70.53;101611.52;1737375;82;20298;-56
2020/12/01 05:16:54;;;;;;;14.90;9.78;;;;;;;6.86;70.42;101614.85;1699374;84;21378;-56
2020/12/01 05:20:00;;;;;;;12.50;7.80;;;;;;;6.80;70.69;101614.47;1678056;85;21569;-57
2020/12/01 05:23:08;;;;;;;9.88;7.10;;;;;;;6.74;70.77;101618.52;1706500;84;21698;-57
2020/12/01 05:26:19;;;;;;;16.67;11.97;;;;;;;6.72;70.95;101633.25;1737323;82;21274;-56
2020/12/01 05:29:33;;;;;;;17.75;11.78;;;;;;;6.72;70.88;101632.77;1706308;84;21450;-56
2020/12/01 05:32:49;;;;;;;12.45;9.00;;;;;;;6.70;70.95;101632.50;1737498;82;21300;-56
2020/12/01 05:36:27;;;;;;;17.30;8.43;;;;;;;6.72;70.88;101627.81;1706372;84;21264;-56
2020/12/01 05:39:32;;;;;;;23.90;11.12;;;;;;;6.70;70.87;101640.18;1755807;81;21217;-56
2020/12/01 05:42:38;;;;;;;21.82;12.37;;;;;;;6.73;70.89;101635.85;1761828;81;21840;-57
2020/12/01 05:45:46;;;;;;;17.12;11.12;;;;;;;6.76;70.72;101636.09;1748144;81;21313;-57
2020/12/01 05:49:12;;;;;;;18.98;12.78;;;;;;;6.81;70.60;101634.75;1762300;81;21350;-57
2020/12/01 05:52:25;;;;;;;15.23;9.60;;;;;;;6.74;70.33;101643.02;1762818;81;21387;-57
2020/12/01 05:55:33;;;;;;;12.43;8.45;;;;;;;6.71;70.39;101638.30;1762275;80;21421;-57
2020/12/01 05:58:45;;;;;;;10.20;7.20;;;;;;;6.73;70.20;101652.18;1762523;81;21197;-59
2020/12/01 06:01:54;;;;;;;12.27;8.40;;;;;;;6.66;69.88;101647.34;1762258;81;21220;-57
2020/12/01 06:05:04;;;;;;;11.05;7.95;;;;;;;6.50;70.09;101657.69;1761777;80;21952;-57
2020/12/01 06:08:27;;;;;;;11.43;7.83;;;;;;;6.51;70.29;101658.92;1756917;81;21368;-56
2020/12/01 06:11:45;;;;;;;;;;;;;;;6.58;70.11;101662.89;1764520;80;21398;-56
2020/12/01 06:15:22;;;;;;;14.47;8.40;;;;;;;6.57;69.64;101661.16;1735652;81;20282;-55
2020/12/01 06:18:31;;;;;;;9.58;6.55;;;;;;;6.52;69.29;101665.20;1735070;82;21835;-57
2020/12/01 06:21:47;;;;;;;8.85;6.33;;;;;;;6.43;69.25;101672.25;1738600;82;21430;-60
2020/12/01 06:25:11;;;;;;;11.03;8.15;;;;;;;6.41;69.26;101678.29;1724229;82;21847;-59
2020/12/01 06:28:47;;;;;;;17.00;11.48;;;;;;;6.40;69.11;101679.28;1738149;82;21483;-58
2020/12/01 06:32:06;;;;;;;9.75;7.65;;;;;;;6.38;69.00;101678.53;1739574;82;21361;-58
2020/12/01 06:35:40;;;;;;;21.93;16.05;;;;;;;6.38;69.06;101685.33;1738466;82;21388;-58
2020/12/01 06:39:07;;;;;;;14.03;8.63;;;;;;;6.38;68.96;101686.69;1753590;81;21840;-56
2020/12/01 06:42:25;;;;;;;11.85;8.60;;;;;;;6.42;68.95;101690.92;1756705;81;21507;-56
2020/12/01 06:45:42;;;;;;;11.73;9.73;;;;;;;6.43;68.80;101695.37;1762946;80;21375;-57
2020/12/01 06:48:52;;;;;;;12.47;9.33;;;;;;;6.42;68.60;101696.84;1762491;81;21177;-57
2020/12/01 06:52:02;;;;;;;13.75;11.25;;;;;;;6.27;68.41;101693.44;1758541;80;21173;-58
2020/12/01 06:55:10;;;;;;;12.53;8.88;;;;;;;6.22;68.76;101692.03;1762122;80;21220;-56
2020/12/01 06:58:28;;;;;;;9.50;7.17;;;;;;;6.29;68.92;101695.55;1736502;82;21205;-57
2020/12/01 07:01:38;;;;;;;13.15;10.00;;;;;;;6.36;68.83;101702.25;1736985;81;21356;-57
2020/12/01 07:04:43;;;;;;;13.08;9.20;;;;;;;6.31;68.40;101707.67;1737424;81;21192;-59
2020/12/01 07:07:53;;;;;;;13.72;9.60;;;;;;;6.21;68.58;101706.14;1754319;81;21845;-57
2020/12/01 07:11:08;;;;;;;14.63;9.88;;;;;;;6.23;68.78;101713.70;1719546;83;21329;-58
2020/12/01 07:14:25;;;;;;;13.83;9.70;;;;;;;6.26;68.76;101716.19;1760746;81;21329;-58
2020/12/01 07:17:48;;;;;;;12.95;9.30;;;;;;;6.35;68.72;101716.84;1762743;81;21208;-58
2020/12/01 07:21:36;;;;;;;12.23;9.88;;;;;;;6.47;68.56;101715.89;1762479;81;21474;-57
2020/12/01 07:24:59;;;;;;;13.88;9.98;;;;;;;6.55;68.20;101715.33;1750209;81;21319;-57
2020/12/01 07:28:30;;;;;;;13.35;10.60;;;;;;;6.53;67.87;101715.93;1738802;81;21185;-58
2020/12/01 07:31:44;;;;;;;16.70;10.28;;;;;;;6.55;67.65;101718.05;1708410;81;21344;-58
2020/12/01 07:34:52;;;;;;;13.20;9.68;;;;;;;6.51;67.39;101717.41;1762950;80;21310;-56
2020/12/01 07:38:28;;;;;;;10.72;8.15;;;;;;;6.50;67.23;101733.34;1759651;81;21224;-58
2020/12/01 07:41:34;;;;;;;11.65;9.33;;;;;;;6.51;67.22;101726.94;1763293;81;21362;-58
2020/12/01 07:44:46;;;;;;;12.23;9.68;;;;;;;6.55;66.98;101724.34;1758060;81;21331;-57
2020/12/01 07:47:52;;;;;;;12.55;9.93;;;;;;;6.61;66.93;101723.86;1749002;81;21216;-55
2020/12/01 07:50:58;;;;;;;12.13;9.43;;;;;;;6.66;66.75;101728.98;1761617;80;21343;-55
2020/12/01 07:54:05;;;;;;;11.60;8.65;;;;;;;6.69;66.53;101720.05;1716899;83;21180;-55
2020/12/01 07:57:24;;;;;;;13.32;9.13;;;;;;;6.69;66.09;101729.58;1743765;81;21694;-55
2020/12/01 08:00:30;;;;;;;10.88;7.45;;;;;;;6.57;66.05;101733.26;1744222;82;21316;-55
2020/12/01 08:03:43;;;;;;;18.62;14.63;;;;;;;6.54;66.39;101721.73;1733130;82;21251;-56
2020/12/01 08:06:48;;;;;;;12.93;10.23;;;;;;;6.51;66.50;101722.85;1700557;83;21412;-55
2020/12/01 08:10:07;;;;;;;12.58;9.20;;;;;;;6.45;66.27;101724.69;1676802;83;21361;-55
2020/12/01 08:13:12;;;;;;;13.18;9.58;;;;;;;6.35;66.40;101730.44;1685286;84;21785;-54
2020/12/01 08:16:32;;;;;;;12.23;9.03;;;;;;;6.40;66.39;101727.36;1663206;84;21336;-55
2020/12/01 08:19:38;;;;;;;10.95;8.60;;;;;;;6.47;66.40;101729.49;1646066;86;21244;-54
2020/12/01 08:22:46;;;;;;;9.33;8.33;;;;;;;6.56;66.30;101723.85;1645075;86;21264;-55
2020/12/01 08:25:51;;;;;;;11.50;9.75;;;;;;;6.65;66.19;101727.22;1679996;85;21227;-54
2020/12/01 08:29:23;;;;;;;11.03;8.93;;;;;;;6.76;66.16;101721.33;1691792;85;21832;-56
2020/12/01 08:32:35;;;;;;;10.40;7.75;;;;;;;6.87;65.93;101721.36;1689602;84;21291;-56
2020/12/01 08:35:47;;;;;;;10.18;7.40;;;;;;;6.91;65.23;101715.20;1741299;82;21216;-55
2020/12/01 08:39:16;;;;;;;10.72;7.47;;;;;;;6.91;64.95;101717.91;1743594;82;21255;-55
2020/12/01 08:42:43;;;;;;;9.68;7.40;;;;;;;6.86;64.73;101721.00;1740322;82;21333;-55
2020/12/01 08:46:35;;;;;;;11.85;7.28;;;;;;;6.83;64.43;101711.72;1730571;81;21263;-55
2020/12/01 08:49:52;;;;;;;12.73;8.58;;;;;;;6.83;64.35;101702.19;1696333;84;21398;-56
2020/12/01 08:53:17;;;;;;;13.13;9.75;;;;;;;6.60;64.07;101705.81;1688329;81;21872;-58
2020/12/01 08:56:34;;;;;;;24.70;15.83;;;;;;;6.57;64.60;101701.09;1726752;82;21255;-56
2020/12/01 08:59:53;;;;;;;16.87;12.23;;;;;;;6.60;64.74;101699.49;1733953;81;21573;-55
2020/12/01 09:03:16;;;;;;;14.63;10.20;;;;;;;6.58;64.84;101696.05;1745157;82;21213;-56
2020/12/01 09:06:36;;;;;;;12.47;9.10;;;;;;;6.60;64.73;101703.09;1730585;81;21459;-54
2020/12/01 09:09:45;;;;;;;11.95;9.43;;;;;;;6.65;64.62;101694.09;1705810;83;21371;-55
2020/12/01 09:12:58;;;;;;;10.85;8.73;;;;;;;6.69;64.45;101695.57;1731153;83;21812;-56
2020/12/01 09:16:36;;;;;;;11.43;9.00;;;;;;;6.74;64.48;101685.71;1743799;81;21835;-55
2020/12/01 09:20:11;;;;;;;12.37;9.35;;;;;;;6.78;64.31;101686.70;1753026;82;21385;-56
2020/12/01 09:23:21;;;;;;;16.80;12.07;;;;;;;6.80;64.14;101686.07;1736243;81;21239;-55
2020/12/01 09:26:28;;;;;;;22.00;17.15;;;;;;;6.80;63.85;101687.44;1718953;81;21226;-56
2020/12/01 09:29:33;;;;;;;13.65;10.25;;;;;;;6.79;63.91;101680.27;1755860;81;21194;-56
2020/12/01 09:32:39;;;;;;;11.90;9.38;;;;;;;6.81;63.95;101681.51;1743065;81;21221;-55
2020/12/01 09:35:44;;;;;;;13.95;10.60;;;;;;;6.81;63.87;101677.42;1748775;80;21558;-54
2020/12/01 09:38:50;;;;;;;19.32;10.72;;;;;;;6.81;63.87;101671.50;1749640;81;21270;-56
2020/12/01 09:42:22;;;;;;;12.35;9.03;;;;;;;6.77;63.93;101667.27;1761357;80;21363;-56
2020/12/01 09:45:27;;;;;;;16.40;9.33;;;;;;;6.78;63.86;101666.30;1735731;80;21760;-58
2020/12/01 09:48:36;;;;;;;13.93;8.78;;;;;;;6.77;63.91;101666.42;1760964;81;21356;-58
2020/12/01 09:51:50;;;;;;;12.50;8.58;;;;;;;6.79;63.87;101666.66;1760838;80;21220;-57
2020/12/01 09:55:08;;;;;;;10.35;7.72;;;;;;;6.80;63.45;101675.19;1717827;81;21343;-59
2020/12/01 10:05:05;;;;;;;12.07;7.83;;;;;;;6.69;63.41;101668.36;1743837;81;22163;-57
2020/12/01 10:35:19;;;;;;;15.08;9.55;;;;;;;6.38;64.79;101666.77;1753739;82;21201;-57
2020/12/01 10:37:39;;;;;;;14.98;9.93;;;;;;;6.35;64.57;101661.09;1744353;82;21710;-58
2020/12/01 10:40:43;;;;;;;15.48;9.08;;;;;;;6.34;64.68;101662.09;1753578;81;21224;-57
2020/12/01 10:43:51;;;;;;;15.65;10.75;;;;;;;6.35;64.74;101658.38;1753689;82;21239;-58
2020/12/01 10:46:57;;;;;;;17.82;11.45;;;;;;;6.37;64.60;101655.05;1753863;80;21577;-58
2020/12/01 10:50:03;;;;;;;21.62;12.20;;;;;;;6.41;64.43;101649.73;1754435;81;21789;-59
2020/12/01 10:53:09;;;;;;;19.90;10.38;;;;;;;6.44;64.33;101653.57;1754235;82;21359;-58
2020/12/01 10:56:14;;;;;;;16.32;10.88;;;;;;;6.44;63.91;101645.41;1755491;81;21240;-58
2020/12/01 10:59:25;;;;;;;20.97;11.30;;;;;;;6.45;63.67;101649.89;1746261;81;21367;-59
2020/12/01 11:02:36;;;;;;;17.70;11.65;;;;;;;6.27;63.41;101639.53;1730299;82;21363;-59
2020/12/01 11:05:41;;;;;;;15.53;9.80;;;;;;;6.21;63.90;101640.89;1758194;80;21896;-58
2020/12/01 11:09:03;;;;;;;16.97;11.48;;;;;;;6.25;64.12;101641.53;1734068;81;21268;-58
2020/12/01 11:12:17;;;;;;;17.15;10.98;;;;;;;6.30;64.25;101645.61;1759225;80;21332;-57
2020/12/01 11:15:29;;;;;;;18.57;11.48;;;;;;;6.34;64.38;101652.57;1755529;80;21228;-57
2020/12/01 11:18:36;;;;;;;15.88;11.57;;;;;;;6.33;64.29;101645.38;1761032;81;21353;-54
2020/12/01 11:21:47;;;;;;;20.12;12.60;;;;;;;6.26;64.38;101646.84;1682794;83;21266;-55
2020/12/01 11:24:54;;;;;;;22.67;11.75;;;;;;;6.20;64.42;101651.88;1751763;79;21259;-53
2020/12/01 11:27:59;;;;;;;19.10;10.93;;;;;;;6.12;64.61;101651.59;1734759;82;21243;-54
2020/12/01 11:31:07;;;;;;;19.50;12.93;;;;;;;6.06;64.95;101652.92;1734716;81;21208;-54
2020/12/01 11:34:17;;;;;;;19.17;12.13;;;;;;;6.03;65.01;101646.36;1735089;82;21238;-54
2020/12/01 11:37:28;;;;;;;23.57;13.98;;;;;;;6.04;65.31;101652.19;1765235;81;21469;-55
2020/12/01 11:40:42;;;;;;;21.57;13.10;;;;;;;6.03;65.30;101650.44;1760583;81;21475;-56
2020/12/01 11:43:53;;;;;;;29.42;14.03;;;;;;;6.04;65.63;101650.31;1731624;82;21347;-58
2020/12/01 11:46:59;;;;;;;20.88;12.88;;;;;;;5.93;65.74;101647.55;1735004;82;21223;-58
2020/12/01 11:50:05;;;;;;;24.18;13.78;;;;;;;5.82;66.08;101653.39;1741690;81;21728;-56
2020/12/01 11:53:11;;;;;;;22.05;14.25;;;;;;;5.77;66.34;101650.99;1740916;81;21212;-57
2020/12/01 11:56:19;;;;;;;25.35;14.68;;;;;;;5.78;66.61;101647.80;1739712;82;21200;-59
2020/12/01 11:59:26;;;;;;;23.00;14.63;;;;;;;5.78;66.64;101645.95;1742776;82;21344;-57
2020/12/01 12:02:32;;;;;;;37.50;24.25;;;;;;;5.81;66.73;101637.58;1716275;82;21235;-58
2020/12/01 12:05:38;;;;;;;29.82;17.92;;;;;;;5.79;66.62;101643.61;1731109;82;21657;-58
2020/12/01 12:08:44;;;;;;;32.48;16.32;;;;;;;5.75;66.53;101650.27;1722419;82;22080;-57
2020/12/01 12:11:50;;;;;;;29.70;16.37;;;;;;;5.77;66.61;101654.22;1710355;82;21318;-57
2020/12/01 12:14:57;;;;;;;26.48;15.63;;;;;;;5.79;66.62;101646.32;1710380;82;21761;-57
2020/12/01 12:18:02;;;;;;;27.73;15.88;;;;;;;5.82;66.65;101647.96;1728747;82;21192;-56
2020/12/01 12:21:10;;;;;;;29.67;16.35;;;;;;;5.84;66.66;101650.08;1739084;82;21205;-57
2020/12/01 12:24:16;;;;;;;29.67;16.95;;;;;;;5.82;66.79;101654.27;1741687;82;21535;-57
2020/12/01 12:27:22;;;;;;;28.42;16.17;;;;;;;5.77;66.87;101656.43;1737887;82;21754;-56
2020/12/01 12:30:29;;;;;;;27.82;16.12;;;;;;;5.76;66.87;101658.78;1736147;82;21575;-57
2020/12/01 12:33:36;;;;;;;25.88;13.68;;;;;;;5.78;66.86;101658.66;1722692;82;21267;-57
2020/12/01 12:36:40;;;;;;;25.02;15.20;;;;;;;5.78;66.95;101667.69;1741839;82;21272;-57
2020/12/01 12:39:47;;;;;;;28.20;15.28;;;;;;;5.76;67.16;101670.13;1720997;81;21267;-58
2020/12/01 12:42:54;;;;;;;23.52;14.55;;;;;;;5.71;67.11;101666.88;1735935;81;21207;-60
2020/12/01 12:46:00;;;;;;;28.75;15.00;;;;;;;5.67;67.19;101664.03;1741540;82;21347;-58
2020/12/01 12:49:05;;;;;;;26.52;14.15;;;;;;;5.62;67.19;101673.00;1734744;82;21206;-60
2020/12/01 12:52:10;;;;;;;30.90;18.37;;;;;;;5.62;67.37;101661.66;1711730;82;21256;-59
2020/12/01 12:55:15;;;;;;;31.87;16.00;;;;;;;5.61;67.45;101669.41;1711900;83;21394;-59
2020/12/01 12:58:21;;;;;;;30.12;18.32;;;;;;;5.60;67.58;101663.61;1721957;82;21244;-60
2020/12/01 13:01:29;;;;;;;29.00;15.60;;;;;;;5.60;67.72;101673.11;1733472;82;21232;-59
2020/12/01 13:04:37;;;;;;;28.12;16.32;;;;;;;5.54;67.50;101676.28;1733603;82;21196;-59
2020/12/01 13:07:43;;;;;;;27.55;15.55;;;;;;;5.51;67.63;101674.28;1738626;82;21335;-59
2020/12/01 13:10:48;;;;;;;29.25;15.63;;;;;;;5.48;67.70;101674.51;1760184;79;21270;-58
2020/12/01 13:13:54;;;;;;;24.00;14.53;;;;;;;5.45;67.74;101677.45;1726771;81;21348;-59
2020/12/01 13:17:00;;;;;;;28.23;15.95;;;;;;;5.42;67.83;101677.16;1712499;82;21215;-58
2020/12/01 13:20:04;;;;;;;26.77;16.10;;;;;;;5.37;67.90;101679.85;1730755;81;21184;-57
2020/12/01 13:23:13;;;;;;;31.23;15.65;;;;;;;5.38;68.10;101677.50;1741733;81;21831;-57
2020/12/01 13:26:28;;;;;;;30.00;15.55;;;;;;;5.39;68.14;101680.62;1759055;79;21228;-57
2020/12/01 13:29:33;;;;;;;41.73;24.55;;;;;;;5.34;68.15;101683.67;1755138;81;21232;-57
2020/12/01 13:32:39;;;;;;;26.80;16.12;;;;;;;5.27;68.19;101680.13;1741116;81;21390;-56
2020/12/01 13:35:49;;;;;;;26.73;14.90;;;;;;;5.23;68.33;101688.13;1766167;79;21366;-58
2020/12/01 13:39:01;;;;;;;29.00;15.18;;;;;;;5.12;68.41;101697.53;1761273;81;21358;-57
2020/12/01 13:42:12;;;;;;;29.82;16.07;;;;;;;5.06;68.63;101693.90;1734526;81;21290;-58
2020/12/01 13:45:22;;;;;;;30.45;16.77;;;;;;;5.05;68.79;101689.42;1753394;81;21383;-60
2020/12/01 13:48:33;;;;;;;31.97;16.25;;;;;;;5.07;68.90;101688.84;1747362;81;21893;-58
2020/12/01 13:51:40;;;;;;;29.10;15.78;;;;;;;5.03;68.81;101692.25;1752977;80;21726;-59
2020/12/01 13:54:45;;;;;;;27.95;14.93;;;;;;;4.95;68.81;101701.93;1754332;79;21187;-59
2020/12/01 13:57:53;;;;;;;26.52;13.13;;;;;;;4.88;68.73;101697.89;1753219;81;21193;-59
2020/12/01 14:01:00;;;;;;;26.02;15.78;;;;;;;4.80;69.02;101700.27;1753331;81;21339;-57
2020/12/01 14:04:12;;;;;;;26.70;15.68;;;;;;;4.83;69.25;101702.77;1745646;81;21766;-58
2020/12/01 14:07:25;;;;;;;31.33;15.30;;;;;;;4.84;69.17;101708.09;1749287;81;21262;-58
2020/12/01 14:10:35;;;;;;;32.67;16.75;;;;;;;4.85;69.10;101707.61;1739644;81;21358;-58
2020/12/01 14:13:44;;;;;;;34.38;17.07;;;;;;;4.80;69.05;101694.85;1741680;81;21244;-58
2020/12/01 14:16:49;;;;;;;27.17;14.28;;;;;;;4.72;69.10;101704.01;1739417;81;21206;-58
2020/12/01 14:20:00;;;;;;;26.57;15.58;;;;;;;4.69;69.31;101702.87;1745767;81;21342;-59
2020/12/01 14:23:08;;;;;;;29.05;16.07;;;;;;;4.71;69.39;101699.06;1739259;81;21825;-58
2020/12/01 14:26:18;;;;;;;30.32;17.20;;;;;;;4.75;69.48;101697.01;1745918;81;21216;-57
2020/12/01 14:29:24;;;;;;;38.00;17.62;;;;;;;4.76;69.44;101697.41;1746387;81;21767;-57
2020/12/01 14:33:20;;;;;;;33.00;15.10;;;;;;;4.76;69.59;101700.12;1744715;81;21181;-56
2020/12/01 14:36:38;;;;;;;25.43;14.10;;;;;;;4.78;69.61;101696.79;1735406;81;21769;-57
2020/12/01 14:39:39;;;;;;;30.30;16.32;;;;;;;4.80;69.51;101692.14;1722626;81;21199;-58
2020/12/01 14:42:54;;;;;;;33.00;15.90;;;;;;;4.80;69.43;101689.42;1748769;81;21869;-58
2020/12/01 14:46:04;;;;;;;37.83;18.70;;;;;;;4.78;69.36;101692.72;1759671;81;21390;-57
2020/12/01 14:49:27;;;;;;;34.67;16.20;;;;;;;4.80;69.41;101701.63;1750294;81;21196;-57
2020/12/01 14:52:52;;;;;;;33.08;17.05;;;;;;;4.82;69.41;101700.53;1758541;81;21188;-57
2020/12/01 14:56:26;;;;;;;29.67;16.25;;;;;;;4.85;69.14;101700.83;1739961;79;21220;-58
2020/12/01 15:00:06;;;;;;;32.40;17.37;;;;;;;4.82;69.12;101694.27;1720385;82;21387;-56
2020/12/01 15:03:49;;;;;;;32.33;19.27;;;;;;;4.85;69.12;101698.12;1663194;85;21372;-57
2020/12/01 15:07:16;;;;;;;34.90;19.02;;;;;;;4.81;69.14;101704.71;1708964;83;21351;-57
2020/12/01 15:10:47;;;;;;;28.92;15.78;;;;;;;4.82;69.15;101698.34;1725631;82;21235;-58
2020/12/01 15:13:52;;;;;;;38.08;16.73;;;;;;;4.81;69.02;101695.22;1726162;83;21354;-56
2020/12/01 15:17:18;;;;;;;29.50;15.65;;;;;;;4.74;68.94;101711.56;1726264;82;21893;-57